Sloman Herakles — V2FY4 — position and weather

sailwx.info

Track history (hours):
 
Tides and Currents Weather Stations Pressure Air Temp Water Temp Dewpoint Dewpoint Depression Visibility Wind Speed Wind Dir Waves Ship Positions

Sloman Herakles

Last reported at 2017-Jun-25 19:01 UTC. Time now 2017-Jun-26 11:55 UTC.
Position N 39°44' W 009°57'.

Length 145 m; draft 9 m.

Type: Tanker. MMSI: 305851000.

Date/timePositionNaut miles runAvg speedWind from/ knotsBaromVisibWave heightAir tempDewpointWater temp
2017-Jun-25 19:01N 39°44' W 009°57'2312.1
2017-Jun-25 17:09N 39°22' W 009°57'211.7
2017-Jun-25 16:57N 39°19' W 009°57'512.1
2017-Jun-25 16:30N 39°14' W 009°57'612.0
2017-Jun-25 16:00N 39°08' W 009°56'712.3
2017-Jun-25 15:28N 39°01' W 009°56'511.7
2017-Jun-25 15:00N 38°56' W 009°57'1212.1
2017-Jun-25 14:00N 38°44' W 009°57'611.9
2017-Jun-25 13:31N 38°38' W 009°56'611.7
2017-Jun-25 13:00N 38°32' W 009°54'611.6
2017-Jun-25 12:29N 38°27' W 009°52'611.5
2017-Jun-25 12:00N 38°21' W 009°50'1211.2
2017-Jun-25 10:53N 38°09' W 009°47'511.0
2017-Jun-25 10:26N 38°04' W 009°45'1711.4
2017-Jun-25 08:55N 37°47' W 009°41'511.5
2017-Jun-25 08:28N 37°42' W 009°39'511.1
2017-Jun-25 08:00N 37°37' W 009°37'1211.5
2017-Jun-25 06:57N 37°26' W 009°34'512.2
2017-Jun-25 06:31N 37°20' W 009°32'1012.4
2017-Jun-25 05:42N 37°11' W 009°30'312.4
2017-Jun-25 05:28N 37°08' W 009°29'1712.2
2017-Jun-25 04:06N 36°52' W 009°24'212.1
2017-Jun-25 03:56N 36°50' W 009°22'612.4
2017-Jun-25 03:29N 36°46' W 009°17'612.2
2017-Jun-25 03:01N 36°42' W 009°12'611.7
2017-Jun-25 02:27N 36°39' W 009°05'612.4
2017-Jun-25 02:00N 36°38' W 008°58'611.9
2017-Jun-25 01:30N 36°36' W 008°51'4012.6
2017-Jun-24 22:20N 36°25' W 008°03'413.0
2017-Jun-24 22:00N 36°24' W 007°58'11711.6
2017-Jun-24 11:52N 35°58' W 005°37'512.2
2017-Jun-24 11:29N 35°59' W 005°31'611.8
2017-Jun-24 11:00N 36°01' W 005°24'611.8
2017-Jun-24 10:29N 36°03' W 005°17'16511.8
2017-Jun-23 20:30N 36°39' W 001°58'3511.9
2017-Jun-23 17:34N 37°06' W 001°30'111.4
2017-Jun-23 17:29N 37°06' W 001°29'611.5
2017-Jun-23 17:00N 37°11' W 001°24'811.7
2017-Jun-23 16:21N 37°16' W 001°18'  
2017-Jun-20 19:50N 36°00' W 005°12'513.6
2017-Jun-20 19:30N 35°60' W 005°18'713.1
2017-Jun-20 18:58N 35°58' W 005°26'10110.9
2017-Jun-20 09:44N 36°11' W 007°30'311.5
2017-Jun-20 09:30N 36°11' W 007°33'1611.9
2017-Jun-20 08:09N 36°15' W 007°52'311.8
2017-Jun-20 07:52N 36°16' W 007°56'411.8
2017-Jun-20 07:30N 36°17' W 008°01'7611.5
2017-Jun-20 00:52N 36°45' W 009°30'411.7
2017-Jun-20 00:30N 36°48' W 009°33'612.2
2017-Jun-20 00:00N 36°54' W 009°35'612.0
2017-Jun-19 23:30N 37°00' W 009°37'612.1
2017-Jun-19 23:00N 37°06' W 009°38'612.4
2017-Jun-19 22:30N 37°12' W 009°40'612.3
2017-Jun-19 22:00N 37°18' W 009°42'612.4
2017-Jun-19 21:30N 37°24' W 009°44'612.2
2017-Jun-19 21:00N 37°30' W 009°45'612.3
2017-Jun-19 20:30N 37°36' W 009°47'612.3
2017-Jun-19 20:00N 37°42' W 009°49'612.7
2017-Jun-19 19:30N 37°48' W 009°50'612.6
2017-Jun-19 19:00N 37°54' W 009°52'612.2
2017-Jun-19 18:30N 38°00' W 009°54'612.3
2017-Jun-19 18:00N 38°06' W 009°56'612.5
2017-Jun-19 17:30N 38°12' W 009°58'612.3
2017-Jun-19 17:00N 38°18' W 009°60'612.7
2017-Jun-19 16:30N 38°24' W 010°01'612.8
2017-Jun-19 16:00N 38°31' W 010°03'612.3
2017-Jun-19 15:31N 38°37' W 010°04'612.2
2017-Jun-19 15:00N 38°43' W 010°06'612.2
2017-Jun-19 14:30N 38°49' W 010°06'1212.4
2017-Jun-19 13:30N 39°01' W 010°06'612.6
2017-Jun-19 13:00N 39°07' W 010°06'612.6
2017-Jun-19 12:31N 39°14' W 010°06'612.0
2017-Jun-19 12:00N 39°20' W 010°06'612.5
2017-Jun-19 11:30N 39°26' W 010°06'612.2
2017-Jun-19 11:00N 39°32' W 010°06'3112.5
2017-Jun-19 08:33N 40°03' W 010°05'112.2
2017-Jun-19 08:30N 40°03' W 010°05'912.2
2017-Jun-19 07:44N 40°13' W 010°06'312.0
2017-Jun-19 07:30N 40°15' W 010°06'611.8
2017-Jun-19 07:00N 40°21' W 010°06'612.1
2017-Jun-19 06:30N 40°27' W 010°06'612.4
2017-Jun-19 06:01N 40°33' W 010°07'612.3
2017-Jun-19 05:31N 40°40' W 010°07'612.0
2017-Jun-19 05:00N 40°46' W 010°07'612.1
2017-Jun-19 04:30N 40°52' W 010°07'612.1
2017-Jun-19 04:00N 40°58' W 010°07'612.4
2017-Jun-19 03:30N 41°04' W 010°07'612.3
2017-Jun-19 03:01N 41°10' W 010°07'612.1
2017-Jun-19 02:30N 41°16' W 010°07'612.2
2017-Jun-19 02:00N 41°22' W 010°06'612.4
2017-Jun-19 01:31N 41°28' W 010°06'612.3
2017-Jun-19 01:00N 41°35' W 010°06'612.2
2017-Jun-19 00:31N 41°41' W 010°06'611.8
2017-Jun-19 00:00N 41°47' W 010°06'1311.8
2017-Jun-18 22:56N 41°59' W 010°06'712.0
2017-Jun-18 22:21N 42°06' W 010°06'411.8
2017-Jun-18 22:00N 42°10' W 010°06'612.0
2017-Jun-18 21:30N 42°16' W 010°06'611.7
2017-Jun-18 21:00N 42°22' W 010°06'40011.7
2017-Jun-17 10:54N 48°26' W 006°09'511.9
2017-Jun-17 10:30N 48°31' W 006°06'611.8
2017-Jun-17 10:00N 48°36' W 006°02'611.4
2017-Jun-17 09:27N 48°41' W 005°57'511.2
2017-Jun-17 09:00N 48°46' W 005°54'611.1
2017-Jun-17 08:30N 48°50' W 005°49'510.5
2017-Jun-17 08:00N 48°54' W 005°44'510.9
2017-Jun-17 07:30N 48°57' W 005°37'510.9
2017-Jun-17 07:00N 49°01' W 005°30'611.2
2017-Jun-17 06:30N 49°03' W 005°23'611.3
2017-Jun-17 06:00N 49°06' W 005°16'611.8
2017-Jun-17 05:29N 49°09' W 005°08'612.1
2017-Jun-17 05:00N 49°12' W 004°59'612.2
2017-Jun-17 04:30N 49°15' W 004°51'612.6
2017-Jun-17 04:00N 49°18' W 004°43'712.8
2017-Jun-17 03:30N 49°21' W 004°35'612.8
2017-Jun-17 03:00N 49°25' W 004°26'712.7
2017-Jun-17 02:28N 49°29' W 004°18'612.5
2017-Jun-17 02:00N 49°32' W 004°10'612.1
2017-Jun-17 01:30N 49°35' W 004°02'611.6
2017-Jun-17 00:59N 49°38' W 003°54'611.4
2017-Jun-17 00:28N 49°41' W 003°46'510.8
2017-Jun-16 23:59N 49°43' W 003°39'510.8
2017-Jun-16 23:30N 49°45' W 003°31'510.9
2017-Jun-16 23:00N 49°47' W 003°24'510.7
2017-Jun-16 22:30N 49°50' W 003°16'610.8
2017-Jun-16 21:58N 49°53' W 003°09'611.1
2017-Jun-16 21:26N 49°56' W 003°01'511.7
2017-Jun-16 21:00N 49°58' W 002°54'611.9
2017-Jun-16 20:30N 50°00' W 002°45'712.6
2017-Jun-16 19:58N 50°02' W 002°35'813.2
2017-Jun-16 19:22N 50°04' W 002°23'513.6
2017-Jun-16 19:00N 50°06' W 002°16'713.9
2017-Jun-16 18:30N 50°08' W 002°05'714.1
2017-Jun-16 18:00N 50°10' W 001°55'714.0
2017-Jun-16 17:31N 50°11' W 001°44'713.7
2017-Jun-16 17:00N 50°12' W 001°34'713.5
2017-Jun-16 16:31N 50°08' W 001°26'713.1
2017-Jun-16 16:00N 50°04' W 001°18'612.9
2017-Jun-16 15:30N 49°59' W 001°11'612.2
2017-Jun-16 15:01N 49°55' W 001°04'611.6
2017-Jun-16 14:31N 49°51' W 000°58'1211.6
2017-Jun-16 13:31N 49°42' W 000°45'611.5
2017-Jun-16 13:00N 49°38' W 000°39'611.4
2017-Jun-16 12:30N 49°36' W 000°31'510.9
2017-Jun-16 12:00N 49°36' W 000°23'510.0
2017-Jun-16 11:31N 49°33' W 000°16'511.0
2017-Jun-16 11:01N 49°30' W 000°09'611.1
2017-Jun-16 10:31N 49°30' W 000°01'5 9.5
2017-Jun-16 10:01N 49°29' E 000°07'2 4.9
2017-Jun-16 09:31N 49°29' E 000°10'0 0.0
2017-Jun-16 09:01N 49°29' E 000°10'1 2.4
2017-Jun-16 08:31N 49°28' E 000°12'1 2.7
2017-Jun-16 08:00N 49°28' E 000°14'0 0.0
2017-Jun-16 07:30N 49°28' E 000°14'0 0.0
2017-Jun-16 07:00N 49°28' E 000°14'0 0.0
2017-Jun-16 06:30N 49°28' E 000°14'0 0.0
2017-Jun-16 06:00N 49°28' E 000°14'0 0.0
2017-Jun-16 05:30N 49°28' E 000°14'0 0.0
2017-Jun-16 05:00N 49°28' E 000°14'0 0.0
2017-Jun-16 04:30N 49°28' E 000°14'0 0.0
2017-Jun-16 04:00N 49°28' E 000°14'0 0.0
2017-Jun-16 03:30N 49°28' E 000°14'0 0.0
2017-Jun-16 03:00N 49°28' E 000°14'0 0.0
2017-Jun-16 02:30N 49°28' E 000°14'0 0.0
2017-Jun-16 02:00N 49°28' E 000°14'0 0.0
2017-Jun-16 01:30N 49°28' E 000°14'0 0.0
2017-Jun-16 01:00N 49°28' E 000°14'0 0.0
2017-Jun-16 00:30N 49°28' E 000°14'0 0.0
2017-Jun-16 00:00N 49°28' E 000°14'0 0.0
2017-Jun-15 23:30N 49°28' E 000°14'0 0.0
2017-Jun-15 23:00N 49°28' E 000°14'0 0.0
2017-Jun-15 22:30N 49°28' E 000°14'0 0.0
2017-Jun-15 22:00N 49°28' E 000°14'0 0.0
2017-Jun-15 21:30N 49°28' E 000°14'0 0.0
2017-Jun-15 21:00N 49°28' E 000°14'0 0.0
2017-Jun-15 20:30N 49°28' E 000°14'0 0.0
2017-Jun-15 20:00N 49°28' E 000°14'0 0.0
2017-Jun-15 19:30N 49°28' E 000°14'  
Track history (hours):
 
Tides and Currents Weather Stations Pressure Air Temp Water Temp Dewpoint Dewpoint Depression Visibility Wind Speed Wind Dir Waves Ship Positions

Sloman Herakles

Last reported at 2017-Jun-25 19:01 UTC. Time now 2017-Jun-26 11:55 UTC.
Position N 39°44' W 009°57'.

Length 145 m; draft 9 m.

Type: Tanker. MMSI: 305851000.

Date/timePositionNaut miles runAvg speedWind from/ knotsBaromVisibWave heightAir tempDewpointWater temp
2017-Jun-25 19:01N 39°44' W 009°57'2312.1
2017-Jun-25 17:09N 39°22' W 009°57'211.7
2017-Jun-25 16:57N 39°19' W 009°57'512.1
2017-Jun-25 16:30N 39°14' W 009°57'612.0
2017-Jun-25 16:00N 39°08' W 009°56'712.3
2017-Jun-25 15:28N 39°01' W 009°56'511.7
2017-Jun-25 15:00N 38°56' W 009°57'1212.1
2017-Jun-25 14:00N 38°44' W 009°57'611.9
2017-Jun-25 13:31N 38°38' W 009°56'611.7
2017-Jun-25 13:00N 38°32' W 009°54'611.6
2017-Jun-25 12:29N 38°27' W 009°52'611.5
2017-Jun-25 12:00N 38°21' W 009°50'1211.2
2017-Jun-25 10:53N 38°09' W 009°47'511.0
2017-Jun-25 10:26N 38°04' W 009°45'1711.4
2017-Jun-25 08:55N 37°47' W 009°41'511.5
2017-Jun-25 08:28N 37°42' W 009°39'511.1
2017-Jun-25 08:00N 37°37' W 009°37'1211.5
2017-Jun-25 06:57N 37°26' W 009°34'512.2
2017-Jun-25 06:31N 37°20' W 009°32'1012.4
2017-Jun-25 05:42N 37°11' W 009°30'312.4
2017-Jun-25 05:28N 37°08' W 009°29'1712.2
2017-Jun-25 04:06N 36°52' W 009°24'212.1
2017-Jun-25 03:56N 36°50' W 009°22'612.4
2017-Jun-25 03:29N 36°46' W 009°17'612.2
2017-Jun-25 03:01N 36°42' W 009°12'611.7
2017-Jun-25 02:27N 36°39' W 009°05'612.4
2017-Jun-25 02:00N 36°38' W 008°58'611.9
2017-Jun-25 01:30N 36°36' W 008°51'4012.6
2017-Jun-24 22:20N 36°25' W 008°03'413.0
2017-Jun-24 22:00N 36°24' W 007°58'11711.6
2017-Jun-24 11:52N 35°58' W 005°37'512.2
2017-Jun-24 11:29N 35°59' W 005°31'611.8
2017-Jun-24 11:00N 36°01' W 005°24'611.8
2017-Jun-24 10:29N 36°03' W 005°17'16511.8
2017-Jun-23 20:30N 36°39' W 001°58'3511.9
2017-Jun-23 17:34N 37°06' W 001°30'111.4
2017-Jun-23 17:29N 37°06' W 001°29'611.5
2017-Jun-23 17:00N 37°11' W 001°24'811.7
2017-Jun-23 16:21N 37°16' W 001°18'  
2017-Jun-20 19:50N 36°00' W 005°12'513.6
2017-Jun-20 19:30N 35°60' W 005°18'713.1
2017-Jun-20 18:58N 35°58' W 005°26'10110.9
2017-Jun-20 09:44N 36°11' W 007°30'311.5
2017-Jun-20 09:30N 36°11' W 007°33'1611.9
2017-Jun-20 08:09N 36°15' W 007°52'311.8
2017-Jun-20 07:52N 36°16' W 007°56'411.8
2017-Jun-20 07:30N 36°17' W 008°01'7611.5
2017-Jun-20 00:52N 36°45' W 009°30'411.7
2017-Jun-20 00:30N 36°48' W 009°33'612.2
2017-Jun-20 00:00N 36°54' W 009°35'612.0
2017-Jun-19 23:30N 37°00' W 009°37'612.1
2017-Jun-19 23:00N 37°06' W 009°38'612.4
2017-Jun-19 22:30N 37°12' W 009°40'612.3
2017-Jun-19 22:00N 37°18' W 009°42'612.4
2017-Jun-19 21:30N 37°24' W 009°44'612.2
2017-Jun-19 21:00N 37°30' W 009°45'612.3
2017-Jun-19 20:30N 37°36' W 009°47'612.3
2017-Jun-19 20:00N 37°42' W 009°49'612.7
2017-Jun-19 19:30N 37°48' W 009°50'612.6
2017-Jun-19 19:00N 37°54' W 009°52'612.2
2017-Jun-19 18:30N 38°00' W 009°54'612.3
2017-Jun-19 18:00N 38°06' W 009°56'612.5
2017-Jun-19 17:30N 38°12' W 009°58'612.3
2017-Jun-19 17:00N 38°18' W 009°60'612.7
2017-Jun-19 16:30N 38°24' W 010°01'612.8
2017-Jun-19 16:00N 38°31' W 010°03'612.3
2017-Jun-19 15:31N 38°37' W 010°04'612.2
2017-Jun-19 15:00N 38°43' W 010°06'612.2
2017-Jun-19 14:30N 38°49' W 010°06'1212.4
2017-Jun-19 13:30N 39°01' W 010°06'612.6
2017-Jun-19 13:00N 39°07' W 010°06'612.6
2017-Jun-19 12:31N 39°14' W 010°06'612.0
2017-Jun-19 12:00N 39°20' W 010°06'612.5
2017-Jun-19 11:30N 39°26' W 010°06'612.2
2017-Jun-19 11:00N 39°32' W 010°06'3112.5
2017-Jun-19 08:33N 40°03' W 010°05'112.2
2017-Jun-19 08:30N 40°03' W 010°05'912.2
2017-Jun-19 07:44N 40°13' W 010°06'312.0
2017-Jun-19 07:30N 40°15' W 010°06'611.8
2017-Jun-19 07:00N 40°21' W 010°06'612.1
2017-Jun-19 06:30N 40°27' W 010°06'612.4
2017-Jun-19 06:01N 40°33' W 010°07'612.3
2017-Jun-19 05:31N 40°40' W 010°07'612.0
2017-Jun-19 05:00N 40°46' W 010°07'612.1
2017-Jun-19 04:30N 40°52' W 010°07'612.1
2017-Jun-19 04:00N 40°58' W 010°07'612.4
2017-Jun-19 03:30N 41°04' W 010°07'612.3
2017-Jun-19 03:01N 41°10' W 010°07'612.1
2017-Jun-19 02:30N 41°16' W 010°07'612.2
2017-Jun-19 02:00N 41°22' W 010°06'612.4
2017-Jun-19 01:31N 41°28' W 010°06'612.3
2017-Jun-19 01:00N 41°35' W 010°06'612.2
2017-Jun-19 00:31N 41°41' W 010°06'611.8
2017-Jun-19 00:00N 41°47' W 010°06'1311.8
2017-Jun-18 22:56N 41°59' W 010°06'712.0
2017-Jun-18 22:21N 42°06' W 010°06'411.8
2017-Jun-18 22:00N 42°10' W 010°06'612.0
2017-Jun-18 21:30N 42°16' W 010°06'611.7
2017-Jun-18 21:00N 42°22' W 010°06'40011.7
2017-Jun-17 10:54N 48°26' W 006°09'511.9
2017-Jun-17 10:30N 48°31' W 006°06'611.8
2017-Jun-17 10:00N 48°36' W 006°02'611.4
2017-Jun-17 09:27N 48°41' W 005°57'511.2
2017-Jun-17 09:00N 48°46' W 005°54'611.1
2017-Jun-17 08:30N 48°50' W 005°49'510.5
2017-Jun-17 08:00N 48°54' W 005°44'510.9
2017-Jun-17 07:30N 48°57' W 005°37'510.9
2017-Jun-17 07:00N 49°01' W 005°30'611.2
2017-Jun-17 06:30N 49°03' W 005°23'611.3
2017-Jun-17 06:00N 49°06' W 005°16'611.8
2017-Jun-17 05:29N 49°09' W 005°08'612.1
2017-Jun-17 05:00N 49°12' W 004°59'612.2
2017-Jun-17 04:30N 49°15' W 004°51'612.6
2017-Jun-17 04:00N 49°18' W 004°43'712.8
2017-Jun-17 03:30N 49°21' W 004°35'612.8
2017-Jun-17 03:00N 49°25' W 004°26'712.7
2017-Jun-17 02:28N 49°29' W 004°18'612.5
2017-Jun-17 02:00N 49°32' W 004°10'612.1
2017-Jun-17 01:30N 49°35' W 004°02'611.6
2017-Jun-17 00:59N 49°38' W 003°54'611.4
2017-Jun-17 00:28N 49°41' W 003°46'510.8
2017-Jun-16 23:59N 49°43' W 003°39'510.8
2017-Jun-16 23:30N 49°45' W 003°31'510.9
2017-Jun-16 23:00N 49°47' W 003°24'510.7
2017-Jun-16 22:30N 49°50' W 003°16'610.8
2017-Jun-16 21:58N 49°53' W 003°09'611.1
2017-Jun-16 21:26N 49°56' W 003°01'511.7
2017-Jun-16 21:00N 49°58' W 002°54'611.9
2017-Jun-16 20:30N 50°00' W 002°45'712.6
2017-Jun-16 19:58N 50°02' W 002°35'813.2
2017-Jun-16 19:22N 50°04' W 002°23'513.6
2017-Jun-16 19:00N 50°06' W 002°16'713.9
2017-Jun-16 18:30N 50°08' W 002°05'714.1
2017-Jun-16 18:00N 50°10' W 001°55'714.0
2017-Jun-16 17:31N 50°11' W 001°44'713.7
2017-Jun-16 17:00N 50°12' W 001°34'713.5
2017-Jun-16 16:31N 50°08' W 001°26'713.1
2017-Jun-16 16:00N 50°04' W 001°18'612.9
2017-Jun-16 15:30N 49°59' W 001°11'612.2
2017-Jun-16 15:01N 49°55' W 001°04'611.6
2017-Jun-16 14:31N 49°51' W 000°58'1211.6
2017-Jun-16 13:31N 49°42' W 000°45'611.5
2017-Jun-16 13:00N 49°38' W 000°39'611.4
2017-Jun-16 12:30N 49°36' W 000°31'510.9
2017-Jun-16 12:00N 49°36' W 000°23'510.0
2017-Jun-16 11:31N 49°33' W 000°16'511.0
2017-Jun-16 11:01N 49°30' W 000°09'611.1
2017-Jun-16 10:31N 49°30' W 000°01'5 9.5
2017-Jun-16 10:01N 49°29' E 000°07'2 4.9
2017-Jun-16 09:31N 49°29' E 000°10'0 0.0
2017-Jun-16 09:01N 49°29' E 000°10'1 2.4
2017-Jun-16 08:31N 49°28' E 000°12'1 2.7
2017-Jun-16 08:00N 49°28' E 000°14'0 0.0
2017-Jun-16 07:30N 49°28' E 000°14'0 0.0
2017-Jun-16 07:00N 49°28' E 000°14'0 0.0
2017-Jun-16 06:30N 49°28' E 000°14'0 0.0
2017-Jun-16 06:00N 49°28' E 000°14'0 0.0
2017-Jun-16 05:30N 49°28' E 000°14'0 0.0
2017-Jun-16 05:00N 49°28' E 000°14'0 0.0
2017-Jun-16 04:30N 49°28' E 000°14'0 0.0
2017-Jun-16 04:00N 49°28' E 000°14'0 0.0
2017-Jun-16 03:30N 49°28' E 000°14'0 0.0
2017-Jun-16 03:00N 49°28' E 000°14'0 0.0
2017-Jun-16 02:30N 49°28' E 000°14'0 0.0
2017-Jun-16 02:00N 49°28' E 000°14'0 0.0
2017-Jun-16 01:30N 49°28' E 000°14'0 0.0
2017-Jun-16 01:00N 49°28' E 000°14'0 0.0
2017-Jun-16 00:30N 49°28' E 000°14'0 0.0
2017-Jun-16 00:00N 49°28' E 000°14'0 0.0
2017-Jun-15 23:30N 49°28' E 000°14'0 0.0
2017-Jun-15 23:00N 49°28' E 000°14'0 0.0
2017-Jun-15 22:30N 49°28' E 000°14'0 0.0
2017-Jun-15 22:00N 49°28' E 000°14'0 0.0
2017-Jun-15 21:30N 49°28' E 000°14'0 0.0
2017-Jun-15 21:00N 49°28' E 000°14'0 0.0
2017-Jun-15 20:30N 49°28' E 000°14'0 0.0
2017-Jun-15 20:00N 49°28' E 000°14'0 0.0
2017-Jun-15 19:30N 49°28' E 000°14'  

Dump ship's entire track history